Time;durP1;ratioP1;P1;durP2;ratioP2;P2;SDS_P1;SDS_P2;PMS_P1;PMS_P2;Temp;Humidity;BMP_temperature;BMP_pressure;BME280_temperature;BME280_humidity;BME280_pressure;Samples;Min_cycle;Max_cycle;Signal;HPM_P1;HPM_P2
2022/06/11 00:02:57;;;;;;;6.72;4.90;;;;;;;17.74;100.00;100437.78;5549454;32;34128;-65
2022/06/11 00:06:10;;;;;;;7.32;5.07;;;;;;;17.75;100.00;100436.75;5549043;32;34139;-65
2022/06/11 00:09:15;;;;;;;9.07;5.20;;;;;;;17.97;100.00;100436.44;5549078;32;33838;-65
2022/06/11 00:12:20;;;;;;;6.87;5.18;;;;;;;17.94;100.00;100437.69;5523074;32;34605;-65
2022/06/11 00:15:26;;;;;;;7.95;5.30;;;;;;;17.85;100.00;100441.66;5548046;32;34529;-65
2022/06/11 00:18:32;;;;;;;5.97;4.82;;;;;;;17.84;100.00;100439.19;5549094;32;34414;-65
2022/06/11 00:21:39;;;;;;;8.13;5.30;;;;;;;17.91;100.00;100445.34;5547911;32;34077;-65
2022/06/11 00:24:44;;;;;;;6.20;5.20;;;;;;;18.04;99.59;100445.28;5548357;32;34707;-65
2022/06/11 00:27:48;;;;;;;7.43;5.28;;;;;;;17.96;99.95;100445.53;5548883;32;34062;-66
2022/06/11 00:30:51;;;;;;;6.57;5.12;;;;;;;17.94;100.00;100461.84;5549111;32;34094;-65
2022/06/11 00:34:01;;;;;;;6.07;5.00;;;;;;;17.94;100.00;100456.47;5548792;32;34029;-65
2022/06/11 00:37:06;;;;;;;5.87;5.03;;;;;;;18.05;100.00;100452.31;5548759;32;34405;-66
2022/06/11 00:40:12;;;;;;;6.82;5.32;;;;;;;17.97;100.00;100452.53;5548584;32;34575;-66
2022/06/11 00:43:17;;;;;;;7.68;5.37;;;;;;;17.86;100.00;100456.75;5549048;32;33713;-66
2022/06/11 00:46:46;;;;;;;8.65;5.37;;;;;;;17.91;100.00;100454.22;5548757;32;34638;-65
2022/06/11 00:50:01;;;;;;;7.35;5.03;;;;;;;17.81;100.00;100451.97;5548924;32;34075;-65
2022/06/11 00:53:13;;;;;;;6.75;5.07;;;;;;;17.77;100.00;100455.31;5548631;32;35263;-66
2022/06/11 00:56:24;;;;;;;5.95;5.05;;;;;;;17.70;100.00;100452.66;5548394;32;33859;-66
2022/06/11 00:59:37;;;;;;;7.40;4.95;;;;;;;17.69;100.00;100456.38;5548626;32;33750;-66
2022/06/11 01:02:45;;;;;;;7.18;5.65;;;;;;;17.69;100.00;100464.44;5548596;32;34454;-66
2022/06/11 01:06:01;;;;;;;7.07;5.30;;;;;;;17.60;100.00;100454.13;5548929;32;34244;-66
2022/06/11 01:09:29;;;;;;;6.97;5.25;;;;;;;17.71;100.00;100456.19;5547751;32;34268;-65
2022/06/11 01:12:50;;;;;;;8.43;5.30;;;;;;;17.69;100.00;100452.88;5548448;32;33936;-65
2022/06/11 01:15:56;;;;;;;7.97;5.30;;;;;;;17.66;100.00;100453.31;5548536;32;33683;-65
2022/06/11 01:19:44;;;;;;;7.07;5.15;;;;;;;17.86;100.00;100459.41;5548265;32;33974;-66
2022/06/11 01:22:50;;;;;;;7.93;4.78;;;;;;;17.71;100.00;100462.38;5500251;32;33652;-66
2022/06/11 01:26:04;;;;;;;7.37;4.93;;;;;;;17.80;99.61;100463.78;5548184;32;34755;-66
2022/06/11 01:29:19;;;;;;;8.32;5.85;;;;;;;17.80;98.60;100450.34;5548356;32;34228;-66
2022/06/11 01:32:48;;;;;;;6.62;5.43;;;;;;;17.76;99.04;100469.78;5548424;32;33802;-66
2022/06/11 01:36:03;;;;;;;7.37;4.93;;;;;;;17.69;99.96;100464.44;5548433;32;33675;-66
2022/06/11 01:39:15;;;;;;;7.80;5.03;;;;;;;17.64;99.80;100461.56;5548100;32;34271;-66
2022/06/11 01:42:20;;;;;;;8.07;5.60;;;;;;;17.70;99.58;100460.72;5548518;32;33345;-66
2022/06/11 01:45:33;;;;;;;10.00;5.55;;;;;;;17.49;100.00;100458.25;5547377;32;34024;-66
2022/06/11 01:49:09;;;;;;;8.13;4.75;;;;;;;17.45;100.00;100461.56;5548186;32;33779;-65
2022/06/11 01:52:28;;;;;;;6.75;5.00;;;;;;;17.36;100.00;100455.62;5488279;32;34396;-66
2022/06/11 01:55:46;;;;;;;6.90;5.00;;;;;;;17.51;100.00;100458.06;5488369;32;33895;-67
2022/06/11 01:59:04;;;;;;;6.25;5.15;;;;;;;17.49;100.00;100465.47;5488178;32;34121;-66
2022/06/11 02:02:29;;;;;;;6.60;4.82;;;;;;;17.60;99.70;100465.69;5488234;32;34270;-66
2022/06/11 02:05:51;;;;;;;6.50;5.12;;;;;;;17.62;99.53;100473.53;5488579;32;33960;-66
2022/06/11 02:09:06;;;;;;;6.68;5.40;;;;;;;17.54;100.00;100485.28;5488161;32;34686;-66
2022/06/11 02:12:32;;;;;;;8.10;5.20;;;;;;;17.51;100.00;100472.31;5488286;32;35214;-66
2022/06/11 02:16:00;;;;;;;6.43;5.37;;;;;;;17.42;100.00;100476.25;5488160;32;33941;-66
2022/06/11 02:19:11;;;;;;;9.38;5.70;;;;;;;17.36;100.00;100474.41;5488154;32;34421;-66
2022/06/11 02:22:41;;;;;;;6.07;4.75;;;;;;;17.32;100.00;100471.31;5488344;32;33833;-66
2022/06/11 02:25:52;;;;;;;7.35;5.60;;;;;;;17.18;100.00;100480.41;5488151;32;33909;-66
2022/06/11 02:28:57;;;;;;;7.72;5.40;;;;;;;17.28;100.00;100480.00;5503838;32;34318;-66
2022/06/11 02:32:09;;;;;;;5.90;4.80;;;;;;;17.36;100.00;100479.75;5540038;32;33964;-66
2022/06/11 02:35:22;;;;;;;7.18;5.07;;;;;;;17.31;100.00;100488.44;5530525;32;33984;-66
2022/06/11 02:38:29;;;;;;;6.22;5.07;;;;;;;17.41;99.73;100482.62;5528430;32;35157;-66
2022/06/11 02:41:34;;;;;;;8.70;5.35;;;;;;;17.31;100.00;100484.94;5527523;32;34419;-66
2022/06/11 02:44:37;;;;;;;6.72;4.70;;;;;;;17.28;100.00;100483.47;5527204;32;33865;-67
2022/06/11 02:47:41;;;;;;;6.15;4.90;;;;;;;17.34;100.00;100482.62;5528414;32;33617;-66
2022/06/11 02:50:46;;;;;;;6.57;5.50;;;;;;;17.34;99.77;100492.53;5528575;32;34556;-67
2022/06/11 02:53:50;;;;;;;5.68;4.65;;;;;;;17.32;99.73;100489.25;5527313;32;34152;-67
2022/06/11 02:56:55;;;;;;;9.57;5.25;;;;;;;17.33;100.00;100499.75;5528161;32;33974;-67
2022/06/11 02:59:58;;;;;;;8.07;5.35;;;;;;;17.23;100.00;100499.34;5528083;32;34040;-66
2022/06/11 03:03:01;;;;;;;7.68;5.28;;;;;;;17.23;100.00;100495.88;5527898;32;34133;-67
2022/06/11 03:06:04;;;;;;;7.60;5.30;;;;;;;17.24;100.00;100502.88;5528072;32;34445;-66
2022/06/11 03:09:15;;;;;;;6.82;5.30;;;;;;;17.30;100.00;100507.41;5527964;32;33945;-66
2022/06/11 03:12:18;;;;;;;6.45;5.05;;;;;;;17.26;100.00;100498.97;5526961;32;33207;-67
2022/06/11 03:15:23;;;;;;;8.27;5.35;;;;;;;17.13;99.92;100506.19;5528001;32;33774;-67
2022/06/11 03:18:26;;;;;;;11.12;5.68;;;;;;;17.14;100.00;100510.50;5526837;32;33883;-67
2022/06/11 03:21:30;;;;;;;7.50;5.18;;;;;;;17.08;100.00;100519.38;5528021;32;33953;-67
2022/06/11 03:24:33;;;;;;;8.50;5.45;;;;;;;17.16;100.00;100521.84;5526726;32;32599;-66
2022/06/11 03:27:38;;;;;;;9.38;5.80;;;;;;;17.09;100.00;100521.03;5527720;32;33759;-67
2022/06/11 03:30:42;;;;;;;7.03;5.50;;;;;;;17.04;100.00;100529.69;5526245;32;34431;-67
2022/06/11 03:33:49;;;;;;;9.13;5.32;;;;;;;16.98;100.00;100525.16;5545525;32;34149;-67
2022/06/11 03:36:57;;;;;;;6.75;5.40;;;;;;;17.11;100.00;100521.66;5546801;32;34375;-66
2022/06/11 03:40:00;;;;;;;8.40;5.45;;;;;;;17.07;100.00;100531.13;5546539;32;33992;-66
2022/06/11 03:43:03;;;;;;;6.35;5.50;;;;;;;17.11;100.00;100527.84;5545801;32;33120;-67
2022/06/11 03:46:07;;;;;;;6.47;5.15;;;;;;;17.10;100.00;100544.94;5546578;32;34346;-67
2022/06/11 03:49:11;;;;;;;7.70;5.28;;;;;;;17.22;100.00;100539.81;5546475;32;34526;-67
2022/06/11 03:52:14;;;;;;;9.85;5.25;;;;;;;17.29;99.85;100544.12;5546462;32;33871;-66
2022/06/11 03:55:18;;;;;;;6.90;5.20;;;;;;;17.42;99.42;100543.28;5546456;32;35104;-67
2022/06/11 03:58:26;;;;;;;8.60;5.27;;;;;;;17.53;97.12;100544.50;5548842;32;34655;-67
2022/06/11 04:01:31;;;;;;;7.43;4.85;;;;;;;17.66;97.48;100536.47;5549053;32;33988;-67
2022/06/11 04:04:34;;;;;;;6.20;4.72;;;;;;;17.78;97.42;100532.09;5539447;32;33914;-67
2022/06/11 04:07:36;;;;;;;6.47;4.95;;;;;;;17.88;96.54;100543.22;5529727;32;34305;-67
2022/06/11 04:10:41;;;;;;;6.03;4.60;;;;;;;17.99;95.78;100537.19;5528861;32;34314;-67
2022/06/11 04:13:46;;;;;;;9.18;4.78;;;;;;;18.06;94.15;100529.94;5530086;32;34006;-67
2022/06/11 04:16:55;;;;;;;5.15;4.43;;;;;;;18.09;93.35;100537.56;5529701;32;34441;-67
2022/06/11 04:19:58;;;;;;;6.43;4.78;;;;;;;18.17;92.04;100533.81;5529690;32;33778;-67
2022/06/11 04:23:01;;;;;;;5.37;4.57;;;;;;;18.26;91.12;100529.84;5529711;32;35095;-67
2022/06/11 04:26:09;;;;;;;8.02;4.75;;;;;;;18.42;91.26;100540.09;5529755;32;34026;-67
2022/06/11 04:29:16;;;;;;;5.32;4.50;;;;;;;18.51;90.86;100533.44;5529925;32;34504;-67
2022/06/11 04:32:23;;;;;;;7.03;4.87;;;;;;;18.59;89.85;100527.81;5529609;32;34125;-67
2022/06/11 04:35:42;;;;;;;6.45;4.12;;;;;;;18.66;89.22;100534.00;5529562;32;33835;-67
2022/06/11 04:38:47;;;;;;;6.03;4.60;;;;;;;18.65;88.58;100535.03;5528203;32;33158;-68
2022/06/11 04:41:51;;;;;;;5.35;4.25;;;;;;;18.91;88.72;100546.66;5528660;32;33786;-66
2022/06/11 04:44:54;;;;;;;8.80;4.40;;;;;;;19.10;86.62;100545.66;5528484;32;33763;-67
2022/06/11 04:47:57;;;;;;;6.28;4.53;;;;;;;19.21;88.31;100553.03;5529512;32;33842;-66
2022/06/11 04:51:01;;;;;;;4.60;4.03;;;;;;;19.34;85.55;100552.91;5528787;32;33985;-67
2022/06/11 04:54:04;;;;;;;4.70;4.20;;;;;;;19.17;86.43;100554.50;5529324;32;34594;-67
2022/06/11 04:57:10;;;;;;;6.22;4.50;;;;;;;19.28;85.41;100563.72;5529247;32;34278;-67
2022/06/11 05:00:16;;;;;;;6.85;4.30;;;;;;;19.33;84.38;100556.63;5529178;32;34438;-67
2022/06/11 05:03:19;;;;;;;6.78;4.05;;;;;;;19.29;86.01;100573.44;5529502;32;34530;-67
2022/06/11 05:06:27;;;;;;;6.25;4.47;;;;;;;19.25;85.98;100569.56;5528301;32;34090;-67
2022/06/11 05:09:33;;;;;;;6.12;3.92;;;;;;;19.35;85.84;100576.09;5528539;32;34498;-67
2022/06/11 05:12:37;;;;;;;5.07;3.90;;;;;;;19.58;84.02;100585.44;5531571;32;33973;-67
2022/06/11 05:15:46;;;;;;;9.30;4.28;;;;;;;19.61;84.87;100576.91;5531566;32;33792;-67
2022/06/11 05:18:54;;;;;;;6.00;3.95;;;;;;;19.88;83.50;100568.34;5531477;32;34650;-67
2022/06/11 05:21:57;;;;;;;6.15;4.15;;;;;;;20.31;82.14;100572.84;5530784;32;34043;-67
2022/06/11 05:25:00;;;;;;;7.70;4.15;;;;;;;20.62;77.89;100571.81;5531422;32;34066;-68
2022/06/11 05:28:05;;;;;;;5.62;3.80;;;;;;;20.76;77.43;100578.66;5531444;32;34097;-67
2022/06/11 05:31:08;;;;;;;4.80;3.33;;;;;;;20.99;76.48;100578.72;5531328;32;34053;-66
2022/06/11 05:34:11;;;;;;;4.55;3.50;;;;;;;21.44;71.91;100576.37;5531669;32;34028;-67
2022/06/11 05:37:16;;;;;;;5.05;3.25;;;;;;;21.64;69.01;100579.53;5530818;32;34157;-67
2022/06/11 05:40:23;;;;;;;4.55;3.22;;;;;;;21.93;69.37;100585.87;5531166;32;35329;-67
2022/06/11 05:43:26;;;;;;;5.43;3.10;;;;;;;21.76;69.60;100584.94;5530679;32;32791;-66
2022/06/11 05:46:31;;;;;;;3.80;3.12;;;;;;;21.97;69.14;100581.66;5531354;32;33998;-66
2022/06/11 05:49:37;;;;;;;4.22;3.25;;;;;;;22.19;68.12;100581.84;5518200;32;34739;-66
2022/06/11 05:52:45;;;;;;;4.07;3.00;;;;;;;22.24;66.53;100584.66;5531176;32;34695;-68
2022/06/11 05:55:49;;;;;;;4.55;3.08;;;;;;;21.83;68.50;100582.94;5531633;32;33872;-67
2022/06/11 05:58:59;;;;;;;3.92;3.30;;;;;;;22.14;68.07;100576.31;5531118;32;34107;-66
2022/06/11 06:02:10;;;;;;;4.20;3.33;;;;;;;22.23;67.81;100587.56;5531257;32;34679;-66
2022/06/11 06:05:18;;;;;;;5.03;3.25;;;;;;;21.94;69.03;100590.22;5531145;32;33884;-66
2022/06/11 06:08:26;;;;;;;4.32;3.17;;;;;;;21.92;67.95;100583.41;5531035;32;34749;-66
2022/06/11 06:11:29;;;;;;;5.30;3.17;;;;;;;21.72;69.80;100586.47;5531137;32;34396;-65
2022/06/11 06:14:32;;;;;;;7.03;3.12;;;;;;;21.94;70.08;100587.53;5531082;32;35185;-66
2022/06/11 06:17:39;;;;;;;3.10;2.72;;;;;;;21.73;67.04;100579.19;5530882;32;35224;-67
2022/06/11 06:20:42;;;;;;;4.60;3.37;;;;;;;21.44;67.30;100575.56;5530406;32;34553;-66
2022/06/11 06:23:44;;;;;;;5.05;2.95;;;;;;;21.46;69.27;100579.66;5530218;32;34234;-66
2022/06/11 06:26:47;;;;;;;3.58;3.22;;;;;;;21.71;68.01;100574.00;5530951;32;33989;-67
2022/06/11 06:29:50;;;;;;;3.53;3.15;;;;;;;21.56;69.43;100584.47;5530758;32;33920;-66
2022/06/11 06:32:53;;;;;;;4.97;3.42;;;;;;;21.54;67.28;100583.88;5530080;32;34100;-67
2022/06/11 06:35:57;;;;;;;4.18;3.05;;;;;;;21.53;67.86;100583.06;5531097;32;34287;-66
2022/06/11 06:39:00;;;;;;;4.20;2.95;;;;;;;21.63;66.80;100585.19;5530650;32;34456;-67
2022/06/11 06:42:06;;;;;;;4.60;3.37;;;;;;;21.98;67.08;100580.56;5530647;32;34640;-66
2022/06/11 06:45:09;;;;;;;4.85;3.40;;;;;;;22.26;66.69;100582.53;5530696;32;34347;-67
2022/06/11 06:48:14;;;;;;;4.65;3.15;;;;;;;22.13;66.08;100595.47;5529938;32;35268;-66
2022/06/11 06:51:18;;;;;;;4.18;3.15;;;;;;;22.08;66.97;100605.12;5530586;32;33846;-65
2022/06/11 06:54:22;;;;;;;3.62;3.00;;;;;;;22.31;66.82;100600.75;5531013;32;34069;-67
2022/06/11 06:57:24;;;;;;;5.22;3.10;;;;;;;22.25;64.71;100596.28;5530671;32;34745;-67
2022/06/11 07:00:27;;;;;;;4.05;3.05;;;;;;;21.99;64.08;100597.63;5530757;32;34664;-67
2022/06/11 07:03:30;;;;;;;7.50;3.40;;;;;;;22.27;63.91;100591.47;5530699;32;34039;-67
2022/06/11 07:06:41;;;;;;;5.00;3.37;;;;;;;22.46;64.40;100599.13;5529600;32;32424;-67
2022/06/11 07:09:44;;;;;;;3.72;3.00;;;;;;;22.47;63.59;100592.69;5530182;32;34100;-66
2022/06/11 07:12:47;;;;;;;4.32;3.00;;;;;;;22.84;63.38;100590.44;5530599;32;34053;-67
2022/06/11 07:15:54;;;;;;;3.70;3.22;;;;;;;23.19;61.84;100590.22;5530449;32;34377;-67
2022/06/11 07:19:03;;;;;;;4.57;3.03;;;;;;;23.16;61.64;100587.19;5530281;32;34349;-67
2022/06/11 07:22:15;;;;;;;5.82;3.40;;;;;;;23.59;61.46;100581.12;5529895;32;33970;-68
2022/06/11 07:25:18;;;;;;;4.65;3.30;;;;;;;23.52;59.43;100586.75;5529937;32;34025;-67
2022/06/11 07:28:37;;;;;;;5.62;3.20;;;;;;;23.54;59.39;100587.31;5529350;32;33981;-67
2022/06/11 07:31:44;;;;;;;5.37;3.40;;;;;;;23.70;59.56;100583.75;5530117;32;33931;-66
2022/06/11 07:34:49;;;;;;;5.03;2.80;;;;;;;23.85;58.99;100596.72;5531980;32;33845;-67
2022/06/11 07:37:52;;;;;;;4.18;2.70;;;;;;;24.37;57.00;100599.03;5532344;32;33990;-68
2022/06/11 07:40:55;;;;;;;7.78;3.10;;;;;;;24.65;55.31;100587.94;5531836;32;34528;-67
2022/06/11 07:43:58;;;;;;;3.33;2.70;;;;;;;25.02;54.12;100588.91;5532303;32;33972;-68
2022/06/11 07:47:02;;;;;;;4.07;2.62;;;;;;;25.04;54.35;100585.94;5531662;32;33910;-69
2022/06/11 07:50:07;;;;;;;3.58;2.80;;;;;;;25.93;52.49;100583.34;5532315;32;34064;-68
2022/06/11 07:53:11;;;;;;;4.43;2.42;;;;;;;26.68;50.25;100587.44;5532076;32;34659;-68
2022/06/11 07:56:16;;;;;;;2.35;2.03;;;;;;;26.53;49.59;100592.87;5532148;32;34067;-67
2022/06/11 07:59:20;;;;;;;3.17;2.47;;;;;;;27.18;49.43;100590.28;5532180;32;34037;-67
2022/06/11 08:02:22;;;;;;;2.92;2.60;;;;;;;28.13;46.71;100595.88;5532104;32;33857;-67
2022/06/11 08:05:30;;;;;;;3.62;2.70;;;;;;;27.76;46.86;100592.69;5531486;32;34708;-67
2022/06/11 08:08:34;;;;;;;2.83;2.12;;;;;;;28.66;44.42;100599.72;5531231;32;34621;-67
2022/06/11 08:11:38;;;;;;;3.33;2.35;;;;;;;30.04;40.11;100595.63;5531675;32;34239;-69
2022/06/11 08:14:41;;;;;;;3.00;2.50;;;;;;;28.29;43.46;100594.75;5531858;32;35285;-66
2022/06/11 08:17:44;;;;;;;3.67;2.10;;;;;;;28.86;43.32;100594.16;5531734;32;34012;-66
2022/06/11 08:20:51;;;;;;;2.87;2.33;;;;;;;29.28;41.79;100587.31;5530856;32;32847;-67
2022/06/11 08:23:54;;;;;;;4.47;2.05;;;;;;;28.85;44.36;100594.47;5531810;32;34064;-66
2022/06/11 08:26:58;;;;;;;2.25;2.05;;;;;;;30.67;39.92;100589.06;5531998;32;33886;-69
2022/06/11 08:30:08;;;;;;;2.97;2.47;;;;;;;31.50;37.77;100589.13;5531572;32;33923;-68
2022/06/11 08:33:16;;;;;;;3.85;2.53;;;;;;;30.83;38.04;100593.22;5531198;32;32701;-68
2022/06/11 08:36:19;;;;;;;3.50;2.22;;;;;;;30.00;42.47;100589.09;5531803;32;34392;-66
2022/06/11 08:39:22;;;;;;;2.97;2.10;;;;;;;31.08;38.15;100585.44;5530619;32;34101;-67
2022/06/11 08:42:35;;;;;;;6.97;2.20;;;;;;;29.91;41.10;100581.81;5530838;32;34795;-67
2022/06/11 08:45:46;;;;;;;3.35;2.30;;;;;;;29.80;41.84;100587.38;5531658;32;34515;-69
2022/06/11 08:49:04;;;;;;;2.42;2.20;;;;;;;30.73;39.20;100580.50;5530735;32;32597;-68
2022/06/11 08:52:18;;;;;;;3.00;1.80;;;;;;;31.99;36.63;100580.28;5531605;32;33935;-68
2022/06/11 08:55:26;;;;;;;3.05;2.00;;;;;;;31.94;35.18;100585.84;5530921;32;33992;-70
2022/06/11 08:58:50;;;;;;;4.68;2.20;;;;;;;30.97;35.38;100577.66;5531745;32;34098;-67
2022/06/11 09:01:59;;;;;;;2.22;1.98;;;;;;;32.31;35.68;100582.91;5531745;32;33903;-68
2022/06/11 09:05:17;;;;;;;1.98;1.55;;;;;;;32.57;34.27;100579.59;5530856;32;32559;-68
2022/06/11 09:08:39;;;;;;;4.12;1.52;;;;;;;31.03;34.00;100573.78;5531347;32;33942;-68
2022/06/11 09:12:14;;;;;;;2.08;1.80;;;;;;;31.66;34.37;100567.75;5531695;32;34064;-68
2022/06/11 09:15:35;;;;;;;2.42;1.80;;;;;;;29.13;37.94;100576.50;5531199;32;34782;-69
2022/06/11 09:19:05;;;;;;;2.87;2.03;;;;;;;28.67;38.49;100571.31;5531777;32;34177;-68
2022/06/11 09:22:30;;;;;;;3.05;1.83;;;;;;;31.13;36.05;100576.31;5531192;32;34305;-66
2022/06/11 09:25:57;;;;;;;3.42;1.87;;;;;;;31.64;33.03;100576.28;5531157;32;34658;-69
2022/06/11 09:29:13;;;;;;;2.63;1.83;;;;;;;33.74;31.55;100572.91;5531300;32;34375;-68
2022/06/11 09:32:34;;;;;;;3.85;2.00;;;;;;;30.94;34.47;100568.09;5531129;32;33899;-67
2022/06/11 09:35:53;;;;;;;3.47;1.90;;;;;;;29.46;37.97;100567.50;5531600;32;34513;-67
2022/06/11 09:39:05;;;;;;;;;;;;;;;29.77;36.94;100565.25;5531382;32;33898;-67
2022/06/11 09:42:33;;;;;;;3.10;1.98;;;;;;;31.97;32.92;100562.47;5531321;32;34995;-67
2022/06/11 09:45:47;;;;;;;2.70;1.93;;;;;;;32.91;33.63;100557.12;5530655;32;32991;-67
2022/06/11 09:49:08;;;;;;;3.72;1.90;;;;;;;31.24;34.71;100557.78;5531277;32;34205;-66
2022/06/11 09:52:43;;;;;;;2.65;1.85;;;;;;;31.61;34.76;100551.41;5531238;32;34579;-68
2022/06/11 09:55:48;;;;;;;2.28;2.08;;;;;;;32.00;35.11;100553.62;5510098;32;34094;-68
2022/06/11 09:59:03;;;;;;;3.47;1.98;;;;;;;30.79;35.06;100545.63;5531477;32;33981;-68
2022/06/11 10:02:06;;;;;;;2.97;2.10;;;;;;;31.22;35.06;100555.34;5531126;32;34045;-68
2022/06/11 10:05:20;;;;;;;3.12;2.17;;;;;;;33.64;31.10;100551.12;5531240;32;33996;-68
2022/06/11 10:08:36;;;;;;;1.98;1.73;;;;;;;34.87;29.05;100547.19;5530722;32;34180;-68
2022/06/11 10:11:53;;;;;;;4.32;2.00;;;;;;;34.38;30.24;100545.69;5530980;32;33973;-68
2022/06/11 10:15:05;;;;;;;2.35;1.83;;;;;;;34.57;28.89;100546.19;5530386;32;33965;-67
2022/06/11 10:18:17;;;;;;;1.80;1.70;;;;;;;34.42;30.09;100538.44;5530966;32;34367;-67
2022/06/11 10:21:23;;;;;;;2.17;1.60;;;;;;;34.08;28.80;100536.41;5530886;32;34698;-68
2022/06/11 10:24:28;;;;;;;3.50;1.70;;;;;;;33.73;29.92;100527.25;5529882;32;32459;-67
2022/06/11 10:27:35;;;;;;;2.12;1.83;;;;;;;32.89;30.06;100529.94;5526458;32;156216;-67
2022/06/11 10:30:54;;;;;;;1.73;1.58;;;;;;;31.83;32.83;100524.87;5531258;32;34426;-67
2022/06/11 10:34:17;;;;;;;3.25;1.67;;;;;;;30.97;33.23;100526.41;5530962;32;35260;-68
2022/06/11 10:37:35;;;;;;;2.25;2.00;;;;;;;30.00;35.10;100517.97;5531447;32;34311;-67
2022/06/11 10:40:42;;;;;;;3.20;2.20;;;;;;;28.39;38.52;100533.84;5530918;32;34720;-67
2022/06/11 10:44:04;;;;;;;3.95;1.92;;;;;;;27.63;40.17;100518.59;5530005;32;33114;-67
2022/06/11 10:47:16;;;;;;;2.47;1.98;;;;;;;29.68;36.79;100520.50;5530438;32;35132;-66
2022/06/11 10:50:28;;;;;;;3.97;2.55;;;;;;;31.20;36.39;100519.19;5530487;32;33922;-67
2022/06/11 10:53:37;;;;;;;3.25;2.70;;;;;;;29.31;41.54;100510.22;5530538;32;34183;-68
2022/06/11 10:56:47;;;;;;;5.47;2.80;;;;;;;27.90;45.38;100510.03;5530746;32;33891;-68
2022/06/11 11:00:00;;;;;;;3.62;2.60;;;;;;;27.69;46.98;100508.50;5530623;32;34464;-67
2022/06/11 11:03:17;;;;;;;2.75;2.40;;;;;;;28.03;45.41;100509.44;5530388;32;34031;-68
2022/06/11 11:06:34;;;;;;;3.97;2.30;;;;;;;31.74;38.62;100515.72;5529245;32;34449;-67
2022/06/11 11:09:37;;;;;;;5.32;2.10;;;;;;;33.69;34.56;100512.50;5529754;32;33697;-69
2022/06/11 11:12:39;;;;;;;5.47;2.10;;;;;;;34.49;31.83;100502.94;5530355;32;34354;-69
2022/06/11 11:15:47;;;;;;;2.47;2.12;;;;;;;34.34;31.72;100506.97;5529969;32;34361;-67
2022/06/11 11:18:53;;;;;;;2.20;2.00;;;;;;;32.51;34.11;100498.44;5530586;32;35200;-68
2022/06/11 11:22:03;;;;;;;3.12;2.00;;;;;;;34.62;31.93;100504.69;5530211;32;33904;-68
2022/06/11 11:25:31;;;;;;;2.25;2.05;;;;;;;34.41;31.01;100495.50;5530034;32;34185;-68
2022/06/11 11:28:50;;;;;;;4.00;2.40;;;;;;;35.74;30.91;100493.44;5529237;32;34062;-68
2022/06/11 11:31:57;;;;;;;2.80;2.50;;;;;;;34.68;31.91;100492.41;5530205;32;34524;-69
2022/06/11 11:35:27;;;;;;;2.45;2.08;;;;;;;34.73;31.51;100494.19;5530533;32;34565;-69
2022/06/11 11:38:30;;;;;;;2.90;1.90;;;;;;;35.12;31.34;100495.91;5529792;32;34040;-68
2022/06/11 11:41:35;;;;;;;2.55;2.05;;;;;;;35.00;31.20;100493.03;5529914;32;33968;-68
2022/06/11 11:44:51;;;;;;;4.97;2.05;;;;;;;34.86;30.95;100485.75;5529849;32;34023;-67
2022/06/11 11:48:05;;;;;;;4.37;1.80;;;;;;;36.83;28.58;100482.25;5529693;32;33929;-68
2022/06/11 11:51:26;;;;;;;2.12;1.92;;;;;;;37.11;27.89;100479.69;5529483;32;34598;-68
2022/06/11 11:54:29;;;;;;;3.47;2.12;;;;;;;37.07;28.90;100478.75;5529508;32;34338;-68
2022/06/11 11:57:33;;;;;;;2.40;1.87;;;;;;;37.58;27.44;100475.38;5529482;32;34816;-68
2022/06/11 12:00:59;;;;;;;1.98;1.80;;;;;;;37.13;27.20;100478.22;5529017;32;34614;-68
2022/06/11 12:04:10;;;;;;;2.30;1.70;;;;;;;34.50;30.96;100467.94;5528065;32;33851;-68
2022/06/11 12:07:14;;;;;;;4.05;2.00;;;;;;;33.26;33.02;100464.72;5529445;32;33981;-67
2022/06/11 12:10:28;;;;;;;3.33;1.85;;;;;;;35.26;30.38;100464.25;5529611;32;34031;-67
2022/06/11 12:13:43;;;;;;;2.78;2.00;;;;;;;33.59;33.13;100465.97;5529295;32;34777;-67
2022/06/11 12:16:55;;;;;;;3.33;2.08;;;;;;;35.06;30.36;100470.44;5529339;32;34404;-67
2022/06/11 12:20:04;;;;;;;2.15;1.70;;;;;;;34.64;30.48;100466.63;5532109;32;34128;-67
2022/06/11 12:23:42;;;;;;;2.97;1.40;;;;;;;37.72;26.73;100466.72;5532008;32;34041;-67
2022/06/11 12:26:49;;;;;;;4.23;1.50;;;;;;;34.31;31.65;100460.00;5531875;32;33850;-67
2022/06/11 12:29:57;;;;;;;6.40;1.90;;;;;;;35.63;29.00;100468.13;5532050;32;34227;-68
2022/06/11 12:33:00;;;;;;;2.80;1.45;;;;;;;34.35;31.03;100464.53;5532448;32;34485;-69
2022/06/11 12:36:38;;;;;;;2.78;1.62;;;;;;;36.94;28.56;100469.59;5531889;32;34704;-68
2022/06/11 12:40:03;;;;;;;2.67;1.30;;;;;;;34.63;30.19;100461.44;5528211;32;32778;-66
2022/06/11 12:43:09;;;;;;;2.28;1.58;;;;;;;35.94;29.02;100464.25;5531924;32;34002;-68
2022/06/11 12:46:14;;;;;;;2.37;2.05;;;;;;;36.59;29.19;100458.88;5531260;32;35171;-66
2022/06/11 12:49:17;;;;;;;2.35;1.52;;;;;;;35.24;30.33;100452.75;5531972;32;35184;-68
2022/06/11 12:52:36;;;;;;;2.05;1.67;;;;;;;35.61;29.05;100453.06;5531753;32;34583;-68
2022/06/11 12:56:02;;;;;;;3.05;1.55;;;;;;;37.66;26.81;100446.78;5531109;32;34032;-68
2022/06/11 12:59:43;;;;;;;2.75;1.80;;;;;;;38.17;26.12;100442.44;5531394;32;34679;-67
2022/06/11 13:02:48;;;;;;;3.90;1.60;;;;;;;36.09;26.97;100444.31;5531732;32;34509;-68
2022/06/11 13:05:57;;;;;;;4.37;1.80;;;;;;;33.92;30.72;100436.13;5531765;32;35261;-68
2022/06/11 13:09:15;;;;;;;3.00;1.77;;;;;;;36.17;27.10;100432.41;5531048;32;32489;-68
2022/06/11 13:12:31;;;;;;;;;;;;;;;37.06;25.00;100439.19;5531954;32;34094;-68
2022/06/11 13:15:43;;;;;;;4.05;2.00;;;;;;;36.46;26.99;100437.03;5532124;32;34585;-68
2022/06/11 13:18:51;;;;;;;3.03;1.70;;;;;;;35.78;28.26;100432.88;5532011;32;33890;-69
2022/06/11 13:22:19;;;;;;;2.75;1.87;;;;;;;33.57;31.55;100432.47;5531426;32;34262;-66
2022/06/11 13:26:09;;;;;;;8.05;1.65;;;;;;;37.80;26.36;100432.56;5531875;32;34065;-67
2022/06/11 13:29:21;;;;;;;1.77;1.52;;;;;;;38.41;24.74;100421.31;5453054;32;34540;-67
2022/06/11 13:32:28;;;;;;;2.42;1.52;;;;;;;39.48;22.56;100432.12;5453538;32;33808;-67
2022/06/11 13:35:59;;;;;;;2.65;1.58;;;;;;;39.05;23.77;100421.94;5453382;32;34244;-68
2022/06/11 13:39:13;;;;;;;1.92;1.60;;;;;;;39.52;22.87;100421.91;5453262;32;34347;-67
2022/06/11 13:42:18;;;;;;;1.50;1.40;;;;;;;38.68;24.24;100413.00;5453300;32;33796;-66
2022/06/11 13:45:39;;;;;;;1.98;1.42;;;;;;;38.11;24.96;100402.25;5453147;32;33860;-67
2022/06/11 13:48:51;;;;;;;1.62;1.52;;;;;;;37.43;25.90;100413.19;5453364;32;34536;-68
2022/06/11 13:52:09;;;;;;;1.85;1.60;;;;;;;36.90;26.66;100407.81;5453380;32;33962;-66
2022/06/11 13:55:16;;;;;;;2.75;1.60;;;;;;;40.53;22.50;100406.22;5453240;32;34577;-67
2022/06/11 13:58:38;;;;;;;3.05;1.50;;;;;;;38.77;24.18;100403.72;5453303;32;33947;-67
2022/06/11 14:01:53;;;;;;;2.55;1.65;;;;;;;37.20;26.88;100400.16;5451516;32;34549;-67
2022/06/11 14:05:00;;;;;;;1.90;1.70;;;;;;;33.10;31.00;100398.31;5530941;32;34826;-67
2022/06/11 14:08:03;;;;;;;2.50;1.60;;;;;;;34.00;30.99;100389.34;5530824;32;34327;-67
2022/06/11 14:11:37;;;;;;;1.95;1.50;;;;;;;35.34;28.30;100382.59;5530064;32;34473;-68
2022/06/11 14:14:42;;;;;;;2.80;1.60;;;;;;;31.91;33.82;100386.13;5531071;32;34586;-68
2022/06/11 14:17:51;;;;;;;2.40;1.60;;;;;;;32.25;33.89;100380.97;5530890;32;34627;-68
2022/06/11 14:21:29;;;;;;;1.75;1.60;;;;;;;33.76;30.87;100375.22;5531049;32;34301;-68
2022/06/11 14:24:41;;;;;;;2.90;1.60;;;;;;;31.95;35.11;100384.41;5529918;32;33663;-68
2022/06/11 14:27:43;;;;;;;2.25;1.90;;;;;;;30.60;38.42;100367.62;5530733;32;34174;-66
2022/06/11 14:30:49;;;;;;;2.47;1.70;;;;;;;30.98;36.70;100373.78;5530866;32;34576;-68
2022/06/11 14:34:13;;;;;;;;;;;;;;;29.48;38.63;100356.72;5530910;32;34006;-68
2022/06/11 14:37:24;;;;;;;2.85;1.85;;;;;;;29.07;39.68;100367.28;5530755;32;34179;-68
2022/06/11 14:40:33;;;;;;;3.00;1.77;;;;;;;28.63;41.50;100356.50;5529639;32;34285;-67
2022/06/11 14:44:01;;;;;;;2.58;1.90;;;;;;;32.49;35.03;100364.16;5530997;32;33934;-67
2022/06/11 14:47:44;;;;;;;4.78;2.00;;;;;;;34.21;31.56;100372.19;5530418;32;34044;-68